Terminal Aerodrome Forecast
Issued by NWS

Home | Current Version | Previous Version | Text Only | Print | Product List | Glossary On
Versions: 1 2 3 4 5 6 7 8 9 10 11 12 13 14
000
FTUS45 KBOI 060522
TAFBKE
TAF
KBKE 060522Z 0606/0706 31011KT P6SM VCSH SCT040 BKN090
      TEMPO 0606/0608 -SHRA BKN040 OVC090
     FM061000 32011KT P6SM SCT060 BKN100
     FM061800 31015G22KT P6SM SCT120 BKN200
     FM062100 31020G28KT P6SM SCT100 BKN200
     FM070200 31015G25KT P6SM SCT100 BKN200=

USA.gov is the U.S. government's official web portal to all federal, state and local government web resources and services.